createdAt,value
2022-10-17T00:01:11.453Z,84.19
2022-10-17T00:03:40.888Z,84.25
2022-10-17T00:06:14.304Z,84.47
2022-10-17T00:08:44.452Z,84.59
2022-10-17T00:11:19.260Z,84.86
2022-10-17T00:13:49.391Z,84.88
2022-10-17T00:16:29.392Z,84.87
2022-10-17T00:18:58.068Z,84.85
2022-10-17T00:21:26.615Z,85.10
2022-10-17T00:23:55.511Z,85.00
2022-10-17T00:26:24.066Z,85.06
2022-10-17T00:28:53.037Z,84.92
2022-10-17T00:31:22.989Z,84.99
2022-10-17T00:33:52.157Z,84.87
2022-10-17T00:36:25.626Z,84.72
2022-10-17T00:38:58.357Z,84.71
2022-10-17T00:41:30.528Z,84.72
2022-10-17T00:44:01.073Z,84.68
2022-10-17T00:46:39.501Z,84.74
2022-10-17T00:49:12.684Z,84.77
2022-10-17T00:51:47.420Z,84.70
2022-10-17T00:54:19.553Z,84.63
2022-10-17T00:56:48.751Z,84.55
2022-10-17T00:59:19.106Z,84.51
2022-10-17T01:01:57.173Z,84.35
2022-10-17T01:04:27.995Z,84.40
2022-10-17T01:06:56.114Z,84.47
2022-10-17T01:09:25.464Z,84.45
2022-10-17T01:12:31.194Z,84.50
2022-10-17T01:15:11.722Z,84.45
2022-10-17T01:17:48.268Z,84.61
2022-10-17T01:20:54.163Z,84.73
2022-10-17T01:24:00.333Z,84.74
2022-10-17T01:26:53.335Z,84.97
2022-10-17T01:29:40.332Z,85.16
2022-10-17T01:32:15.242Z,85.26
2022-10-17T01:34:57.955Z,85.34
2022-10-17T01:37:36.091Z,85.60
2022-10-17T01:40:38.486Z,85.63
2022-10-17T01:43:26.827Z,85.59
2022-10-17T01:46:10.359Z,85.62
2022-10-17T01:48:43.970Z,85.56
2022-10-17T01:51:27.711Z,85.54
2022-10-17T01:54:13.706Z,85.19
2022-10-17T01:56:44.171Z,85.14
2022-10-17T01:59:25.846Z,84.87
2022-10-17T02:01:56.445Z,84.58
2022-10-17T02:04:26.297Z,84.30
2022-10-17T02:06:54.152Z,84.05
2022-10-17T02:09:25.100Z,83.76
2022-10-17T02:12:27.964Z,84.00
2022-10-17T02:15:15.276Z,83.80
2022-10-17T02:18:11.515Z,83.66
2022-10-17T02:20:55.108Z,83.42
2022-10-17T02:23:29.244Z,83.76
2022-10-17T02:26:46.578Z,83.89
2022-10-17T02:29:22.039Z,83.81
2022-10-17T02:31:55.477Z,83.63
2022-10-17T02:34:31.888Z,83.55
2022-10-17T02:37:05.549Z,83.39
2022-10-17T02:39:35.809Z,83.39
2022-10-17T02:42:07.494Z,83.69
2022-10-17T02:44:38.573Z,83.69
2022-10-17T02:47:18.977Z,83.92
2022-10-17T02:49:52.867Z,84.01
2022-10-17T02:52:30.226Z,84.18
2022-10-17T02:55:06.530Z,84.29
2022-10-17T02:57:42.127Z,84.49
2022-10-17T03:00:14.528Z,84.31
2022-10-17T03:02:52.719Z,84.25
2022-10-17T03:05:26.795Z,84.19
2022-10-17T03:07:56.302Z,84.28
2022-10-17T03:10:25.711Z,84.51
2022-10-17T03:12:54.560Z,84.68
2022-10-17T03:15:22.526Z,84.84
2022-10-17T03:17:50.760Z,85.06
2022-10-17T03:20:19.307Z,85.27
2022-10-17T03:22:47.397Z,85.33
2022-10-17T03:25:21.975Z,85.51
2022-10-17T03:27:50.632Z,85.92
2022-10-17T03:30:19.077Z,86.02
2022-10-17T03:32:47.503Z,86.06
2022-10-17T03:35:15.592Z,86.37
2022-10-17T03:37:45.767Z,86.42
2022-10-17T03:40:13.951Z,86.30
2022-10-17T03:42:42.024Z,86.18
2022-10-17T03:45:10.363Z,86.09
2022-10-17T03:47:38.549Z,85.99
2022-10-17T03:50:07.584Z,85.94
2022-10-17T03:52:36.788Z,85.83
2022-10-17T03:55:05.468Z,85.91
2022-10-17T03:57:36.995Z,86.05
2022-10-17T04:00:06.634Z,86.10
2022-10-17T04:02:42.463Z,85.96
2022-10-17T04:05:13.818Z,86.06
2022-10-17T04:07:42.336Z,86.07
2022-10-17T04:10:11.404Z,86.14
2022-10-17T04:12:39.573Z,86.21
2022-10-17T04:15:08.368Z,86.43
2022-10-17T04:17:38.353Z,86.11
2022-10-17T04:20:07.896Z,86.13
2022-10-17T04:22:36.224Z,86.04
2022-10-17T04:25:04.548Z,85.99
2022-10-17T04:27:37.754Z,85.87
2022-10-17T04:30:07.838Z,85.81
2022-10-17T04:32:38.330Z,85.79
2022-10-17T04:35:29.183Z,85.82
2022-10-17T04:38:02.268Z,85.76
2022-10-17T04:40:30.760Z,85.72
2022-10-17T04:43:00.368Z,85.66
2022-10-17T04:45:34.789Z,85.53
2022-10-17T04:48:03.847Z,85.46
2022-10-17T04:50:32.346Z,85.41
2022-10-17T04:53:15.317Z,85.33
2022-10-17T04:55:43.210Z,85.39
2022-10-17T04:58:11.214Z,85.28
2022-10-17T05:00:39.710Z,85.40
2022-10-17T05:03:23.021Z,85.42
2022-10-17T05:05:51.812Z,85.49
2022-10-17T05:08:19.799Z,85.54
2022-10-17T05:10:47.811Z,85.64
2022-10-17T05:13:16.177Z,85.80
2022-10-17T05:15:44.111Z,85.82
2022-10-17T05:18:12.894Z,85.84
2022-10-17T05:20:42.885Z,86.00
2022-10-17T05:23:11.282Z,85.98
2022-10-17T05:25:41.572Z,85.92
2022-10-17T05:28:09.677Z,85.84
2022-10-17T05:30:41.529Z,85.79
2022-10-17T05:33:09.932Z,85.83
2022-10-17T05:35:37.993Z,85.81
2022-10-17T05:38:06.817Z,85.81
2022-10-17T05:40:35.432Z,85.71
2022-10-17T05:43:03.797Z,85.87
2022-10-17T05:45:32.392Z,86.48
2022-10-17T05:48:01.118Z,86.31
2022-10-17T05:50:29.465Z,86.31
2022-10-17T05:53:04.299Z,86.43
2022-10-17T05:55:34.008Z,86.53
2022-10-17T05:58:02.219Z,86.59
2022-10-17T06:00:33.422Z,86.62
2022-10-17T06:03:01.728Z,86.76
2022-10-17T06:05:29.647Z,86.85
2022-10-17T06:08:01.133Z,86.99
2022-10-17T06:10:32.329Z,87.06
2022-10-17T06:13:01.380Z,87.09
2022-10-17T06:15:29.208Z,87.25
2022-10-17T06:18:03.364Z,87.44
2022-10-17T06:20:31.837Z,87.70
2022-10-17T06:23:00.691Z,88.12
2022-10-17T06:25:47.239Z,88.19
2022-10-17T06:28:15.866Z,88.24
2022-10-17T06:30:48.531Z,88.32
2022-10-17T06:33:23.596Z,88.34
2022-10-17T06:35:53.502Z,88.31
2022-10-17T06:38:23.452Z,88.52
2022-10-17T06:40:54.669Z,88.65
2022-10-17T06:43:27.846Z,88.67
2022-10-17T06:46:19.990Z,88.67
2022-10-17T06:49:00.221Z,88.50
2022-10-17T06:51:41.800Z,88.20
2022-10-17T06:54:11.455Z,88.11
2022-10-17T06:56:52.705Z,87.64
2022-10-17T06:59:39.252Z,87.64
2022-10-17T07:02:13.442Z,87.18
2022-10-17T07:04:41.476Z,87.12
2022-10-17T07:07:09.728Z,86.86
2022-10-17T07:09:38.755Z,86.62
2022-10-17T07:12:08.157Z,86.70
2022-10-17T07:14:36.550Z,86.42
2022-10-17T07:17:06.149Z,85.81
2022-10-17T07:19:34.853Z,85.56
2022-10-17T07:22:02.895Z,84.54
2022-10-17T07:24:32.249Z,84.27
2022-10-17T07:27:13.760Z,84.42
2022-10-17T07:29:42.154Z,83.66
2022-10-17T07:32:13.405Z,83.34
2022-10-17T07:34:41.327Z,83.54
2022-10-17T07:37:12.010Z,82.67
2022-10-17T07:39:42.680Z,82.78
2022-10-17T07:42:10.913Z,82.48
2022-10-17T07:44:39.223Z,81.95
2022-10-17T07:47:07.598Z,81.82
2022-10-17T07:49:42.806Z,81.73
2022-10-17T07:52:12.589Z,80.94
2022-10-17T07:54:41.419Z,80.47
2022-10-17T07:57:10.616Z,80.19
2022-10-17T07:59:38.804Z,79.29
2022-10-17T08:02:08.241Z,78.27
2022-10-17T08:04:36.706Z,77.82
2022-10-17T08:07:19.569Z,77.65
2022-10-17T08:09:50.193Z,78.17
2022-10-17T08:12:18.472Z,76.69
2022-10-17T08:14:46.776Z,76.50
2022-10-17T08:17:15.013Z,75.97
2022-10-17T08:19:43.013Z,76.02
2022-10-17T08:22:10.941Z,76.69
2022-10-17T08:24:39.194Z,76.96
2022-10-17T08:27:11.642Z,76.65
2022-10-17T08:29:41.003Z,76.48
2022-10-17T08:32:10.335Z,76.07
2022-10-17T08:34:38.522Z,77.04
2022-10-17T08:37:06.610Z,75.60
2022-10-17T08:39:34.861Z,75.16
2022-10-17T08:42:26.082Z,76.11
2022-10-17T08:45:25.107Z,75.69
2022-10-17T08:47:58.707Z,75.08
2022-10-17T08:50:29.720Z,74.97
2022-10-17T08:53:04.808Z,74.87
2022-10-17T08:55:45.321Z,74.04
2022-10-17T08:58:25.274Z,74.04
2022-10-17T09:01:24.268Z,73.72
2022-10-17T09:04:11.220Z,72.62
2022-10-17T09:06:55.022Z,73.63
2022-10-17T09:09:22.999Z,73.73
2022-10-17T09:12:12.772Z,74.40
2022-10-17T09:14:49.829Z,74.27
2022-10-17T09:17:42.800Z,73.83
2022-10-17T09:20:26.654Z,72.66
2022-10-17T09:22:57.913Z,71.15
2022-10-17T09:25:27.813Z,70.76
2022-10-17T09:28:25.171Z,70.61
2022-10-17T09:31:06.110Z,70.13
2022-10-17T09:33:58.960Z,70.19
2022-10-17T09:36:36.773Z,70.99
2022-10-17T09:39:06.298Z,70.19
2022-10-17T09:41:46.787Z,71.90
2022-10-17T09:44:20.791Z,71.93
2022-10-17T09:47:06.757Z,72.04
2022-10-17T09:49:37.918Z,71.72
2022-10-17T09:52:18.062Z,71.58
2022-10-17T09:54:50.706Z,71.10
2022-10-17T09:57:21.564Z,70.61
2022-10-17T09:59:59.237Z,69.64
2022-10-17T10:02:30.298Z,69.37
2022-10-17T10:05:06.946Z,70.02
2022-10-17T10:07:38.801Z,70.64
2022-10-17T10:10:26.241Z,69.28
2022-10-17T10:13:06.252Z,69.14
2022-10-17T10:15:41.560Z,69.19
2022-10-17T10:18:25.662Z,69.79
2022-10-17T10:21:06.368Z,70.25
2022-10-17T10:23:40.621Z,69.87
2022-10-17T10:26:25.903Z,69.94
2022-10-17T10:29:08.098Z,69.18
2022-10-17T10:31:39.768Z,69.75
2022-10-17T10:34:36.163Z,69.38
2022-10-17T10:37:16.971Z,69.32
2022-10-17T10:39:51.528Z,68.81
2022-10-17T10:42:31.383Z,68.95
2022-10-17T10:45:29.261Z,68.78
2022-10-17T10:48:27.075Z,68.43
2022-10-17T10:51:06.640Z,69.35
2022-10-17T10:53:43.761Z,68.55
2022-10-17T10:56:36.642Z,68.56
2022-10-17T10:59:19.180Z,68.86
2022-10-17T11:02:25.965Z,67.74
2022-10-17T11:05:03.077Z,67.88
2022-10-17T11:07:40.719Z,67.80
2022-10-17T11:10:36.912Z,67.27
2022-10-17T11:13:18.099Z,68.48
2022-10-17T11:15:59.125Z,67.72
2022-10-17T11:18:35.516Z,67.39
2022-10-17T11:21:21.131Z,67.57
2022-10-17T11:24:00.435Z,67.27
2022-10-17T11:26:32.536Z,66.70
2022-10-17T11:29:04.268Z,67.06
2022-10-17T11:31:36.607Z,67.13
2022-10-17T11:34:12.224Z,67.26
2022-10-17T11:36:45.538Z,66.63
2022-10-17T11:39:22.687Z,66.20
2022-10-17T11:42:06.833Z,65.64
2022-10-17T11:44:37.453Z,65.22
2022-10-17T11:47:19.361Z,64.80
2022-10-17T11:49:58.525Z,64.68
2022-10-17T11:52:56.792Z,64.86
2022-10-17T11:55:30.488Z,65.57
2022-10-17T11:58:24.758Z,65.94
2022-10-17T12:01:29.132Z,65.88
2022-10-17T12:04:17.606Z,64.79
2022-10-17T12:07:07.352Z,63.97
2022-10-17T12:09:46.072Z,64.37
2022-10-17T12:12:38.360Z,65.16
2022-10-17T12:15:25.649Z,64.93
2022-10-17T12:18:02.635Z,64.21
2022-10-17T12:20:33.557Z,65.09
2022-10-17T12:23:20.417Z,64.41
2022-10-17T12:26:04.763Z,64.01
2022-10-17T12:28:43.251Z,65.06
2022-10-17T12:31:29.701Z,64.64
2022-10-17T12:34:05.323Z,64.80
2022-10-17T12:36:33.551Z,64.43
2022-10-17T12:39:01.377Z,64.61
2022-10-17T12:41:38.919Z,64.65
2022-10-17T12:44:12.985Z,64.70
2022-10-17T12:46:44.506Z,64.56
2022-10-17T12:49:53.146Z,64.82
2022-10-17T12:52:32.972Z,64.93
2022-10-17T12:55:14.847Z,64.38
2022-10-17T12:58:08.460Z,64.17
2022-10-17T13:01:18.898Z,64.08
2022-10-17T13:03:46.956Z,63.92
2022-10-17T13:06:21.809Z,64.64
2022-10-17T13:09:05.299Z,64.58
2022-10-17T13:11:36.390Z,63.72
2022-10-17T13:14:19.325Z,63.87
2022-10-17T13:17:06.031Z,64.35
2022-10-17T13:19:43.741Z,64.46
2022-10-17T13:22:17.208Z,63.94
2022-10-17T13:24:45.462Z,63.69
2022-10-17T13:27:25.757Z,63.84
2022-10-17T13:29:56.474Z,64.50
2022-10-17T13:32:27.431Z,63.84
2022-10-17T13:35:07.366Z,63.63
2022-10-17T13:37:36.704Z,63.52
2022-10-17T13:40:22.947Z,63.83
2022-10-17T13:42:57.062Z,63.76
2022-10-17T13:45:37.922Z,64.12
2022-10-17T13:48:16.947Z,64.62
2022-10-17T13:50:50.505Z,63.79
2022-10-17T13:53:26.658Z,63.88
2022-10-17T13:56:26.356Z,63.98
2022-10-17T13:58:57.542Z,64.29
2022-10-17T14:01:28.038Z,63.81
2022-10-17T14:04:08.290Z,63.98
2022-10-17T14:06:49.860Z,64.20
2022-10-17T14:09:26.348Z,64.48
2022-10-17T14:12:13.031Z,64.68
2022-10-17T14:15:09.364Z,64.43
2022-10-17T14:17:38.678Z,64.45
2022-10-17T14:23:22.016Z,64.50
2022-10-17T14:26:08.643Z,64.34
2022-10-17T14:28:36.978Z,64.24
2022-10-17T14:31:32.947Z,64.02
2022-10-17T14:34:03.537Z,64.11
2022-10-17T14:36:36.043Z,64.47
2022-10-17T14:39:11.818Z,64.11
2022-10-17T14:41:45.655Z,64.47
2022-10-17T14:44:32.127Z,64.61
2022-10-17T14:47:18.631Z,64.64
2022-10-17T14:50:05.469Z,64.93
2022-10-17T14:52:38.953Z,65.06
2022-10-17T14:55:23.239Z,65.17
2022-10-17T14:57:51.600Z,65.13
2022-10-17T15:00:21.811Z,65.35
2022-10-17T15:02:51.915Z,65.56
2022-10-17T15:05:20.684Z,65.58
2022-10-17T15:07:49.082Z,65.87
2022-10-17T15:10:40.179Z,66.09
2022-10-17T15:13:27.557Z,66.35
2022-10-17T15:15:57.288Z,66.81
2022-10-17T15:18:25.275Z,67.07
2022-10-17T15:21:04.507Z,66.92
2022-10-17T15:23:34.962Z,67.16
2022-10-17T15:26:02.895Z,67.42
2022-10-17T15:28:30.947Z,67.39
2022-10-17T15:30:59.165Z,67.84
2022-10-17T15:33:27.233Z,67.78
2022-10-17T15:35:55.205Z,68.70
2022-10-17T15:38:23.547Z,69.37
2022-10-17T15:40:52.179Z,69.19
2022-10-17T15:43:20.289Z,68.89
2022-10-17T15:45:48.866Z,68.17
2022-10-17T15:48:30.114Z,68.79
2022-10-17T15:50:59.089Z,68.70
2022-10-17T15:53:27.212Z,68.33
2022-10-17T15:55:55.318Z,68.15
2022-10-17T15:58:23.531Z,68.53
2022-10-17T16:00:51.483Z,68.79
2022-10-17T16:03:19.615Z,69.31
2022-10-17T16:05:47.885Z,70.23
2022-10-17T16:08:15.749Z,70.22
2022-10-17T16:10:43.713Z,69.82
2022-10-17T16:13:18.847Z,69.31
2022-10-17T16:15:46.905Z,69.76
2022-10-17T16:18:14.905Z,70.41
2022-10-17T16:20:43.051Z,70.28
2022-10-17T16:23:14.225Z,71.29
2022-10-17T16:25:42.681Z,71.51
2022-10-17T16:28:12.126Z,70.60
2022-10-17T16:30:45.114Z,70.49
2022-10-17T16:33:13.463Z,70.72
2022-10-17T16:35:41.773Z,71.12
2022-10-17T16:38:09.826Z,71.65
2022-10-17T16:40:40.179Z,72.20
2022-10-17T16:43:12.509Z,72.74
2022-10-17T16:45:41.619Z,73.23
2022-10-17T16:48:10.523Z,73.57
2022-10-17T16:50:41.580Z,74.04
2022-10-17T16:53:10.012Z,74.27
2022-10-17T16:55:38.538Z,74.66
2022-10-17T16:58:06.509Z,74.92
2022-10-17T17:00:34.680Z,75.20
2022-10-17T17:03:02.659Z,75.47
2022-10-17T17:05:30.780Z,75.71
2022-10-17T17:08:00.119Z,76.04
2022-10-17T17:10:28.380Z,76.13
2022-10-17T17:12:57.647Z,76.53
2022-10-17T17:15:25.911Z,76.72
2022-10-17T17:17:55.764Z,76.74
2022-10-17T17:20:24.282Z,77.07
2022-10-17T17:22:52.641Z,77.30
2022-10-17T17:25:22.630Z,77.46
2022-10-17T17:27:50.810Z,77.52
2022-10-17T17:30:18.991Z,77.74
2022-10-17T17:32:47.540Z,77.69
2022-10-17T17:35:15.703Z,78.11
2022-10-17T17:37:43.631Z,77.87
2022-10-17T17:40:12.279Z,77.91
2022-10-17T17:42:40.277Z,77.96
2022-10-17T17:45:12.353Z,78.02
2022-10-17T17:47:40.679Z,78.05
2022-10-17T17:50:08.825Z,78.12
2022-10-17T17:52:37.048Z,78.10
2022-10-17T17:55:05.330Z,78.25
2022-10-17T17:57:33.320Z,78.42
2022-10-17T18:00:02.161Z,78.53
2022-10-17T18:02:32.734Z,78.53
2022-10-17T18:05:00.811Z,78.71
2022-10-17T18:07:28.930Z,78.81
2022-10-17T18:09:57.150Z,78.77
2022-10-17T18:12:25.141Z,78.99
2022-10-17T18:14:53.222Z,79.18
2022-10-17T18:17:21.256Z,79.40
2022-10-17T18:19:49.374Z,79.27
2022-10-17T18:22:17.791Z,79.51
2022-10-17T18:24:45.879Z,79.68
2022-10-17T18:27:16.091Z,79.87
2022-10-17T18:29:48.418Z,80.03
2022-10-17T18:32:17.102Z,80.31
2022-10-17T18:34:45.519Z,80.20
2022-10-17T18:37:13.560Z,80.51
2022-10-17T18:39:41.720Z,80.39
2022-10-17T18:42:09.834Z,80.62
2022-10-17T18:44:37.726Z,80.99
2022-10-17T18:47:05.784Z,80.94
2022-10-17T18:49:33.842Z,80.64
2022-10-17T18:52:01.964Z,80.72
2022-10-17T18:54:32.433Z,80.74
2022-10-17T18:57:00.901Z,80.62
2022-10-17T18:59:29.482Z,80.74
2022-10-17T19:01:57.908Z,80.94
2022-10-17T19:04:26.160Z,81.13
2022-10-17T19:06:54.315Z,81.15
2022-10-17T19:09:22.481Z,81.19
2022-10-17T19:11:50.825Z,81.02
2022-10-17T19:14:19.169Z,81.07
2022-10-17T19:16:49.545Z,81.32
2022-10-17T19:19:21.610Z,81.26
2022-10-17T19:21:50.646Z,81.30
2022-10-17T19:24:22.792Z,81.50
2022-10-17T19:26:55.754Z,81.58
2022-10-17T19:29:27.036Z,81.65
2022-10-17T19:34:24.269Z,81.82
2022-10-17T19:36:52.389Z,81.90
2022-10-17T19:39:23.495Z,81.93
2022-10-17T19:41:51.752Z,81.94
2022-10-17T19:44:19.897Z,82.06
2022-10-17T19:46:49.310Z,82.15
2022-10-17T19:49:18.205Z,82.27
2022-10-17T19:51:46.809Z,82.21
2022-10-17T19:54:18.345Z,82.37
2022-10-17T19:56:46.918Z,82.39
2022-10-17T19:59:16.520Z,82.25
2022-10-17T20:01:45.029Z,82.42
2022-10-17T20:04:13.827Z,82.27
2022-10-17T20:06:42.505Z,82.45
2022-10-17T20:09:15.695Z,82.55
2022-10-17T20:11:45.750Z,82.46
2022-10-17T20:14:13.642Z,82.42
2022-10-17T20:16:42.335Z,82.58
2022-10-17T20:19:13.132Z,82.71
2022-10-17T20:21:43.054Z,82.74
2022-10-17T20:24:14.653Z,82.74
2022-10-17T20:26:43.542Z,82.81
2022-10-17T20:29:24.410Z,82.70
2022-10-17T20:31:52.448Z,82.72
2022-10-17T20:34:20.524Z,82.82
2022-10-17T20:36:49.340Z,82.89
2022-10-17T20:39:18.981Z,82.88
2022-10-17T20:41:49.514Z,82.89
2022-10-17T20:44:17.676Z,82.95
2022-10-17T20:47:00.684Z,83.11
2022-10-17T20:49:30.903Z,83.29
2022-10-17T20:52:00.708Z,83.37
2022-10-17T20:54:29.064Z,83.38
2022-10-17T20:56:59.846Z,83.43
2022-10-17T20:59:31.218Z,83.50
2022-10-17T21:01:59.417Z,83.56
2022-10-17T21:04:47.022Z,83.67
2022-10-17T21:07:16.057Z,83.61
2022-10-17T21:09:45.483Z,83.45
2022-10-17T21:12:21.889Z,83.29
2022-10-17T21:15:00.884Z,82.85
2022-10-17T21:17:29.228Z,82.49
2022-10-17T21:19:57.349Z,82.43
2022-10-17T21:22:25.833Z,82.52
2022-10-17T21:24:54.853Z,82.48
2022-10-17T21:27:22.834Z,82.39
2022-10-17T21:29:52.206Z,82.33
2022-10-17T21:32:32.148Z,82.36
2022-10-17T21:35:08.553Z,82.21
2022-10-17T21:37:36.540Z,82.00
2022-10-17T21:40:04.821Z,81.70
2022-10-17T21:42:33.480Z,81.00
2022-10-17T21:45:04.734Z,80.50
2022-10-17T21:47:41.792Z,80.28
2022-10-17T21:50:13.667Z,79.66
2022-10-17T21:52:41.914Z,79.03
2022-10-17T21:55:10.877Z,78.57
2022-10-17T21:57:38.982Z,77.76
2022-10-17T22:00:08.023Z,77.29
2022-10-17T22:02:40.093Z,76.75
2022-10-17T22:05:08.712Z,74.79
2022-10-17T22:07:36.665Z,74.45
2022-10-17T22:10:05.231Z,73.92
2022-10-17T22:12:33.687Z,73.91
2022-10-17T22:15:01.814Z,73.16
2022-10-17T22:17:30.314Z,72.73
2022-10-17T22:19:58.736Z,73.07
2022-10-17T22:22:26.604Z,72.44
2022-10-17T22:24:54.514Z,71.99
2022-10-17T22:27:23.804Z,71.50
2022-10-17T22:29:51.764Z,71.40
2022-10-17T22:32:22.374Z,70.66
2022-10-17T22:34:50.880Z,70.79
2022-10-17T22:37:18.892Z,70.64
2022-10-17T22:39:46.753Z,70.09
2022-10-17T22:42:15.205Z,69.78
2022-10-17T22:44:43.627Z,69.90
2022-10-17T22:47:11.452Z,69.90
2022-10-17T22:49:39.609Z,69.60
2022-10-17T22:52:07.491Z,69.20
2022-10-17T22:54:35.371Z,69.05
2022-10-17T22:57:03.617Z,69.27
2022-10-17T22:59:31.553Z,68.92
2022-10-17T23:01:59.602Z,69.25
2022-10-17T23:04:27.827Z,69.25
2022-10-17T23:06:55.631Z,68.49
2022-10-17T23:09:23.565Z,68.58
2022-10-17T23:11:51.824Z,68.78
2022-10-17T23:14:19.658Z,68.62
2022-10-17T23:16:47.764Z,68.54
2022-10-17T23:19:15.820Z,68.30
2022-10-17T23:21:43.800Z,68.48
2022-10-17T23:24:11.869Z,68.87
2022-10-17T23:26:40.078Z,68.93
2022-10-17T23:29:07.984Z,68.94
2022-10-17T23:31:36.503Z,68.91
2022-10-17T23:34:05.479Z,68.92
2022-10-17T23:36:33.304Z,68.99
2022-10-17T23:39:01.255Z,69.04
2022-10-17T23:41:29.425Z,68.95
2022-10-17T23:43:57.453Z,69.31
2022-10-17T23:46:25.409Z,69.01
2022-10-17T23:48:53.621Z,69.23
2022-10-17T23:51:22.032Z,69.20
2022-10-17T23:53:50.073Z,69.41
2022-10-17T23:56:18.745Z,69.26
2022-10-17T23:58:46.877Z,69.51
